createdAt,value
2022-10-11T00:00:54.033Z,100751.20
2022-10-11T00:03:34.252Z,100750.40
2022-10-11T00:06:03.994Z,100755.00
2022-10-11T00:08:33.289Z,100750.80
2022-10-11T00:11:05.920Z,100752.60
2022-10-11T00:13:34.782Z,100747.80
2022-10-11T00:16:09.323Z,100752.40
2022-10-11T00:18:38.177Z,100758.80
2022-10-11T00:21:10.621Z,100752.60
2022-10-11T00:23:39.330Z,100750.80
2022-10-11T00:26:11.681Z,100750.20
2022-10-11T00:28:40.672Z,100752.40
2022-10-11T00:31:13.597Z,100750.60
2022-10-11T00:33:41.429Z,100748.40
2022-10-11T00:36:10.600Z,100750.80
2022-10-11T00:38:38.305Z,100754.00
2022-10-11T00:41:06.517Z,100746.40
2022-10-11T00:43:35.713Z,100750.20
2022-10-11T00:46:13.485Z,100751.40
2022-10-11T00:48:48.219Z,100749.60
2022-10-11T00:51:30.698Z,100744.80
2022-10-11T00:54:03.317Z,100745.00
2022-10-11T00:56:35.989Z,100744.20
2022-10-11T00:59:13.691Z,100749.40
2022-10-11T01:01:41.623Z,100756.20
2022-10-11T01:04:09.423Z,100756.20
2022-10-11T01:06:37.201Z,100756.00
2022-10-11T01:09:05.402Z,100753.80
2022-10-11T01:11:36.508Z,100756.60
2022-10-11T01:14:35.949Z,100755.60
2022-10-11T01:17:26.476Z,100752.60
2022-10-11T01:19:59.875Z,100749.40
2022-10-11T01:23:11.128Z,100749.80
2022-10-11T01:26:36.060Z,100748.60
2022-10-11T01:29:33.063Z,100756.80
2022-10-11T01:32:17.686Z,100765.80
2022-10-11T01:34:45.300Z,100769.80
2022-10-11T01:37:32.976Z,100765.40
2022-10-11T01:40:11.809Z,100764.20
2022-10-11T01:42:42.418Z,100763.20
2022-10-11T01:45:17.145Z,100764.60
2022-10-11T01:47:46.237Z,100758.40
2022-10-11T01:50:38.993Z,100763.40
2022-10-11T01:53:40.196Z,100759.60
2022-10-11T01:56:22.920Z,100761.20
2022-10-11T01:59:41.553Z,100759.40
2022-10-11T02:02:52.453Z,100761.60
2022-10-11T02:05:38.918Z,100758.60
2022-10-11T02:08:26.845Z,100761.60
2022-10-11T02:11:05.913Z,100761.20
2022-10-11T02:13:46.215Z,100765.80
2022-10-11T02:16:21.548Z,100766.00
2022-10-11T02:18:53.063Z,100760.60
2022-10-11T02:21:24.422Z,100767.20
2022-10-11T02:24:05.962Z,100765.80
2022-10-11T02:26:36.037Z,100772.60
2022-10-11T02:29:09.733Z,100771.00
2022-10-11T02:31:39.602Z,100771.20
2022-10-11T02:34:25.798Z,100780.20
2022-10-11T02:37:09.041Z,100785.00
2022-10-11T02:39:52.390Z,100786.00
2022-10-11T02:42:30.975Z,100790.00
2022-10-11T02:45:06.931Z,100788.80
2022-10-11T02:47:35.419Z,100788.80
2022-10-11T02:50:03.805Z,100796.60
2022-10-11T02:52:31.669Z,100794.60
2022-10-11T02:54:59.517Z,100802.00
2022-10-11T02:57:27.148Z,100802.80
2022-10-11T02:59:54.848Z,100804.00
2022-10-11T03:02:22.632Z,100797.00
2022-10-11T03:04:50.349Z,100808.80
2022-10-11T03:07:18.066Z,100811.60
2022-10-11T03:09:45.708Z,100812.80
2022-10-11T03:12:13.442Z,100811.00
2022-10-11T03:14:41.157Z,100810.20
2022-10-11T03:17:34.587Z,100818.00
2022-10-11T03:19:56.578Z,100820.40
2022-10-11T03:22:24.364Z,100819.00
2022-10-11T03:24:52.113Z,100823.80
2022-10-11T03:27:20.018Z,100828.80
2022-10-11T03:29:47.762Z,100818.40
2022-10-11T03:32:15.485Z,100824.40
2022-10-11T03:34:43.161Z,100826.80
2022-10-11T03:37:10.827Z,100829.20
2022-10-11T03:39:38.568Z,100832.00
2022-10-11T03:42:06.251Z,100830.40
2022-10-11T03:44:34.099Z,100830.40
2022-10-11T03:47:01.784Z,100836.40
2022-10-11T03:49:29.425Z,100835.60
2022-10-11T03:51:57.123Z,100830.40
2022-10-11T03:54:24.852Z,100844.00
2022-10-11T03:56:52.623Z,100851.60
2022-10-11T03:59:20.391Z,100861.40
2022-10-11T04:01:48.055Z,100859.40
2022-10-11T04:04:15.945Z,100863.00
2022-10-11T04:06:43.681Z,100861.80
2022-10-11T04:09:11.395Z,100860.20
2022-10-11T04:11:39.212Z,100864.00
2022-10-11T04:14:06.983Z,100861.00
2022-10-11T04:16:35.381Z,100861.60
2022-10-11T04:19:03.152Z,100858.40
2022-10-11T04:21:30.980Z,100866.00
2022-10-11T04:23:58.666Z,100866.80
2022-10-11T04:26:26.483Z,100871.60
2022-10-11T04:28:54.362Z,100867.60
2022-10-11T04:31:22.822Z,100873.20
2022-10-11T04:33:50.661Z,100881.40
2022-10-11T04:36:18.496Z,100882.80
2022-10-11T04:38:46.201Z,100886.60
2022-10-11T04:41:15.423Z,100891.00
2022-10-11T04:43:43.116Z,100895.00
2022-10-11T04:46:11.623Z,100903.60
2022-10-11T04:48:39.788Z,100908.80
2022-10-11T04:51:07.484Z,100915.00
2022-10-11T04:53:35.171Z,100924.20
2022-10-11T04:56:11.701Z,100923.80
2022-10-11T04:58:43.083Z,100931.80
2022-10-11T05:01:11.711Z,100926.80
2022-10-11T05:03:39.855Z,100929.60
2022-10-11T05:06:08.278Z,100932.00
2022-10-11T05:08:36.405Z,100945.20
2022-10-11T05:11:10.609Z,100948.80
2022-10-11T05:13:38.996Z,100958.40
2022-10-11T05:16:10.908Z,100959.20
2022-10-11T05:18:40.446Z,100967.00
2022-10-11T05:21:20.816Z,100972.80
2022-10-11T05:23:51.161Z,100976.00
2022-10-11T05:26:20.320Z,100981.40
2022-10-11T05:28:48.548Z,100984.40
2022-10-11T05:31:17.523Z,100987.40
2022-10-11T05:33:45.320Z,100996.00
2022-10-11T05:36:13.618Z,101003.00
2022-10-11T05:38:41.706Z,101000.40
2022-10-11T05:41:14.902Z,101003.80
2022-10-11T05:43:44.638Z,101008.20
2022-10-11T05:46:13.269Z,101011.00
2022-10-11T05:48:41.640Z,101013.20
2022-10-11T05:51:12.083Z,101015.80
2022-10-11T05:53:39.872Z,101026.60
2022-10-11T05:56:23.391Z,101030.80
2022-10-11T05:58:52.287Z,101036.80
2022-10-11T06:01:25.379Z,101033.40
2022-10-11T06:03:54.086Z,101038.20
2022-10-11T06:06:22.203Z,101041.20
2022-10-11T06:08:50.174Z,101048.60
2022-10-11T06:11:25.414Z,101046.20
2022-10-11T06:13:55.240Z,101054.60
2022-10-11T06:16:22.959Z,101056.80
2022-10-11T06:18:56.466Z,101059.80
2022-10-11T06:21:25.500Z,101065.40
2022-10-11T06:23:59.941Z,101067.20
2022-10-11T06:26:30.448Z,101076.40
2022-10-11T06:28:58.899Z,101080.60
2022-10-11T06:31:26.895Z,101083.20
2022-10-11T06:33:54.542Z,101086.40
2022-10-11T06:36:22.275Z,101096.00
2022-10-11T06:38:55.224Z,101102.80
2022-10-11T06:41:27.202Z,101098.40
2022-10-11T06:43:56.068Z,101102.00
2022-10-11T06:46:26.998Z,101099.60
2022-10-11T06:48:56.662Z,101108.40
2022-10-11T06:51:25.913Z,101117.60
2022-10-11T06:53:57.973Z,101121.80
2022-10-11T06:56:28.519Z,101119.00
2022-10-11T06:58:58.930Z,101118.60
2022-10-11T07:01:27.726Z,101121.60
2022-10-11T07:03:58.295Z,101132.60
2022-10-11T07:06:29.083Z,101122.00
2022-10-11T07:08:59.043Z,101129.60
2022-10-11T07:11:29.265Z,101126.60
2022-10-11T07:14:04.631Z,101132.40
2022-10-11T07:16:32.370Z,101142.20
2022-10-11T07:19:03.302Z,101146.80
2022-10-11T07:21:34.199Z,101146.00
2022-10-11T07:24:03.457Z,101152.40
2022-10-11T07:26:37.635Z,101153.80
2022-10-11T07:29:09.408Z,101154.60
2022-10-11T07:31:40.717Z,101156.80
2022-10-11T07:34:10.050Z,101154.20
2022-10-11T07:36:38.034Z,101159.20
2022-10-11T07:39:08.404Z,101160.40
2022-10-11T07:41:39.683Z,101157.80
2022-10-11T07:44:09.599Z,101161.20
2022-10-11T07:46:37.320Z,101168.80
2022-10-11T07:49:05.007Z,101169.40
2022-10-11T07:51:33.187Z,101171.00
2022-10-11T07:54:04.777Z,101174.80
2022-10-11T07:56:36.778Z,101174.60
2022-10-11T07:59:04.654Z,101177.60
2022-10-11T08:01:33.331Z,101176.20
2022-10-11T08:04:01.639Z,101181.40
2022-10-11T08:06:32.834Z,101180.60
2022-10-11T08:09:01.968Z,101179.60
2022-10-11T08:11:35.468Z,101184.80
2022-10-11T08:14:09.055Z,101183.60
2022-10-11T08:16:39.000Z,101185.80
2022-10-11T08:19:07.485Z,101185.00
2022-10-11T08:21:35.353Z,101185.60
2022-10-11T08:24:05.689Z,101188.00
2022-10-11T08:26:34.518Z,101186.60
2022-10-11T08:29:03.535Z,101191.40
2022-10-11T08:31:33.317Z,101198.80
2022-10-11T08:34:01.461Z,101193.20
2022-10-11T08:36:29.255Z,101197.40
2022-10-11T08:38:58.398Z,101203.00
2022-10-11T08:41:30.640Z,101202.00
2022-10-11T08:44:20.360Z,101215.20
2022-10-11T08:47:00.453Z,101222.00
2022-10-11T08:49:33.298Z,101219.40
2022-10-11T08:52:21.696Z,101221.00
2022-10-11T08:54:58.231Z,101222.80
2022-10-11T08:57:31.411Z,101222.40
2022-10-11T09:00:04.854Z,101224.60
2022-10-11T09:03:08.391Z,101228.40
2022-10-11T09:05:53.594Z,101232.60
2022-10-11T09:08:53.998Z,101235.80
2022-10-11T09:11:49.206Z,101242.00
2022-10-11T09:14:54.593Z,101243.60
2022-10-11T09:17:47.349Z,101255.20
2022-10-11T09:20:52.486Z,101255.20
2022-10-11T09:23:31.538Z,101256.80
2022-10-11T09:26:08.437Z,101251.60
2022-10-11T09:29:06.643Z,101255.00
2022-10-11T09:31:34.747Z,101266.80
2022-10-11T09:34:15.073Z,101271.80
2022-10-11T09:37:16.383Z,101263.20
2022-10-11T09:40:10.916Z,101269.60
2022-10-11T09:42:38.570Z,101268.20
2022-10-11T09:45:23.848Z,101277.80
2022-10-11T09:47:56.085Z,101274.00
2022-10-11T09:50:36.769Z,101276.60
2022-10-11T09:53:09.072Z,101277.40
2022-10-11T09:55:41.226Z,101281.40
2022-10-11T09:58:33.829Z,101292.40
2022-10-11T10:01:31.530Z,101297.40
2022-10-11T10:04:25.361Z,101305.60
2022-10-11T10:07:14.375Z,101304.80
2022-10-11T10:09:44.335Z,101310.20
2022-10-11T10:12:18.462Z,101316.40
2022-10-11T10:15:14.049Z,101328.60
2022-10-11T10:17:53.121Z,101328.40
2022-10-11T10:20:40.628Z,101332.00
2022-10-11T10:23:26.024Z,101342.00
2022-10-11T10:26:13.407Z,101344.40
2022-10-11T10:29:11.676Z,101340.40
2022-10-11T10:34:55.419Z,101335.40
2022-10-11T10:37:33.679Z,101339.80
2022-10-11T10:40:14.676Z,101339.80
2022-10-11T10:42:42.443Z,101345.00
2022-10-11T10:45:31.553Z,101350.00
2022-10-11T10:48:23.836Z,101349.20
2022-10-11T10:51:44.987Z,101353.40
2022-10-11T10:54:38.071Z,101356.80
2022-10-11T10:57:58.207Z,101353.40
2022-10-11T11:00:37.085Z,101350.60
2022-10-11T11:03:19.642Z,101352.60
2022-10-11T11:06:02.628Z,101353.20
2022-10-11T11:08:53.159Z,101347.60
2022-10-11T11:11:55.937Z,101349.60
2022-10-11T11:14:52.701Z,101340.60
2022-10-11T11:18:01.680Z,101353.40
2022-10-11T11:20:50.097Z,101357.80
2022-10-11T11:23:27.603Z,101361.40
2022-10-11T11:26:44.255Z,101367.20
2022-10-11T11:29:55.921Z,101381.80
2022-10-11T11:33:01.725Z,101386.00
2022-10-11T11:35:39.855Z,101387.40
2022-10-11T11:38:18.615Z,101385.20
2022-10-11T11:40:54.737Z,101388.80
2022-10-11T11:43:36.592Z,101388.40
2022-10-11T11:46:18.028Z,101384.00
2022-10-11T11:48:48.916Z,101380.40
2022-10-11T11:51:32.859Z,101389.20
2022-10-11T11:54:29.017Z,101398.40
2022-10-11T11:57:30.525Z,101411.40
2022-10-11T12:00:15.411Z,101418.00
2022-10-11T12:03:05.030Z,101423.00
2022-10-11T12:05:36.317Z,101429.00
2022-10-11T12:08:25.903Z,101429.60
2022-10-11T12:11:00.431Z,101431.40
2022-10-11T12:13:37.932Z,101427.80
2022-10-11T12:16:14.315Z,101427.00
2022-10-11T12:19:03.091Z,101411.20
2022-10-11T12:21:36.825Z,101414.00
2022-10-11T12:24:20.528Z,101414.60
2022-10-11T12:26:58.149Z,101412.40
2022-10-11T12:29:49.781Z,101412.40
2022-10-11T12:32:27.469Z,101413.80
2022-10-11T12:35:33.633Z,101417.40
2022-10-11T12:38:28.909Z,101418.60
2022-10-11T12:41:22.100Z,101420.80
2022-10-11T12:43:49.776Z,101420.60
2022-10-11T12:46:55.573Z,101425.80
2022-10-11T12:49:41.721Z,101425.20
2022-10-11T12:52:51.201Z,101423.00
2022-10-11T12:56:27.806Z,101429.00
2022-10-11T12:59:04.680Z,101431.80
2022-10-11T13:01:55.103Z,101437.40
2022-10-11T13:04:33.441Z,101435.20
2022-10-11T13:07:12.915Z,101434.00
2022-10-11T13:09:48.810Z,101443.00
2022-10-11T13:12:26.194Z,101442.00
2022-10-11T13:15:07.210Z,101443.60
2022-10-11T13:17:38.976Z,101446.20
2022-10-11T13:20:15.848Z,101448.40
2022-10-11T13:22:50.315Z,101447.00
2022-10-11T13:25:24.127Z,101459.40
2022-10-11T13:27:55.732Z,101454.20
2022-10-11T13:30:32.516Z,101454.60
2022-10-11T13:33:05.859Z,101461.80
2022-10-11T13:35:37.416Z,101467.60
2022-10-11T13:38:09.376Z,101463.00
2022-10-11T13:40:38.807Z,101471.20
2022-10-11T13:43:06.714Z,101472.20
2022-10-11T13:45:37.171Z,101475.40
2022-10-11T13:48:14.464Z,101474.60
2022-10-11T13:50:46.450Z,101474.20
2022-10-11T13:53:14.097Z,101474.40
2022-10-11T13:55:41.696Z,101483.20
2022-10-11T13:58:26.626Z,101487.20
2022-10-11T14:01:07.656Z,101486.80
2022-10-11T14:03:49.086Z,101487.40
2022-10-11T14:06:16.812Z,101498.60
2022-10-11T14:08:51.756Z,101496.80
2022-10-11T14:11:39.117Z,101503.00
2022-10-11T14:14:35.450Z,101501.80
2022-10-11T14:17:15.542Z,101501.00
2022-10-11T14:19:47.353Z,101502.20
2022-10-11T14:22:17.978Z,101513.00
2022-10-11T14:24:48.821Z,101511.40
2022-10-11T14:27:23.211Z,101515.40
2022-10-11T14:30:12.904Z,101513.60
2022-10-11T14:32:42.358Z,101523.80
2022-10-11T14:35:29.931Z,101521.60
2022-10-11T14:37:58.950Z,101517.80
2022-10-11T14:40:31.032Z,101520.80
2022-10-11T14:42:58.868Z,101519.80
2022-10-11T14:45:27.807Z,101513.80
2022-10-11T14:47:56.449Z,101513.80
2022-10-11T14:50:39.371Z,101516.40
2022-10-11T14:53:10.378Z,101522.80
2022-10-11T14:55:40.784Z,101525.20
2022-10-11T14:58:11.728Z,101523.60
2022-10-11T15:00:39.940Z,101524.40
2022-10-11T15:03:07.861Z,101530.80
2022-10-11T15:05:37.174Z,101530.20
2022-10-11T15:08:07.787Z,101527.80
2022-10-11T15:10:40.015Z,101528.20
2022-10-11T15:13:09.285Z,101537.80
2022-10-11T15:15:40.989Z,101539.80
2022-10-11T15:18:13.009Z,101538.40
2022-10-11T15:20:44.620Z,101537.00
2022-10-11T15:23:12.655Z,101548.80
2022-10-11T15:25:42.688Z,101552.20
2022-10-11T15:28:29.438Z,101552.00
2022-10-11T15:30:57.949Z,101547.40
2022-10-11T15:33:26.477Z,101549.60
2022-10-11T15:35:54.234Z,101550.00
2022-10-11T15:38:25.413Z,101553.20
2022-10-11T15:40:53.938Z,101557.40
2022-10-11T15:43:24.744Z,101551.80
2022-10-11T15:45:54.902Z,101559.40
2022-10-11T15:48:26.549Z,101559.20
2022-10-11T15:50:54.793Z,101564.20
2022-10-11T15:53:31.172Z,101565.60
2022-10-11T15:56:07.356Z,101567.20
2022-10-11T15:58:40.078Z,101564.60
2022-10-11T16:01:18.115Z,101563.00
2022-10-11T16:03:48.470Z,101572.00
2022-10-11T16:06:18.531Z,101577.80
2022-10-11T16:08:47.868Z,101582.00
2022-10-11T16:11:15.713Z,101580.40
2022-10-11T16:13:43.510Z,101580.00
2022-10-11T16:16:11.594Z,101584.80
2022-10-11T16:18:39.946Z,101587.00
2022-10-11T16:21:10.923Z,101588.40
2022-10-11T16:23:38.991Z,101582.80
2022-10-11T16:26:13.466Z,101588.20
2022-10-11T16:28:42.235Z,101588.20
2022-10-11T16:31:18.314Z,101590.20
2022-10-11T16:33:46.861Z,101593.20
2022-10-11T16:36:40.246Z,101599.80
2022-10-11T16:39:16.048Z,101599.40
2022-10-11T16:41:45.339Z,101601.80
2022-10-11T16:44:16.803Z,101602.80
2022-10-11T16:46:49.036Z,101608.80
2022-10-11T16:49:19.846Z,101607.00
2022-10-11T16:51:47.913Z,101603.40
2022-10-11T16:54:20.413Z,101599.80
2022-10-11T16:56:52.716Z,101602.60
2022-10-11T16:59:21.098Z,101602.00
2022-10-11T17:01:49.269Z,101605.20
2022-10-11T17:04:17.195Z,101607.40
2022-10-11T17:06:45.084Z,101609.40
2022-10-11T17:09:14.099Z,101610.20
2022-10-11T17:11:43.065Z,101617.20
2022-10-11T17:14:13.719Z,101617.40
2022-10-11T17:16:41.453Z,101616.80
2022-10-11T17:19:15.537Z,101623.40
2022-10-11T17:21:43.441Z,101625.40
2022-10-11T17:24:11.157Z,101625.60
2022-10-11T17:26:39.009Z,101620.20
2022-10-11T17:29:06.805Z,101617.00
2022-10-11T17:31:36.939Z,101633.40
2022-10-11T17:34:04.948Z,101634.60
2022-10-11T17:36:36.598Z,101632.20
2022-10-11T17:39:10.278Z,101634.20
2022-10-11T17:41:39.065Z,101627.40
2022-10-11T17:44:07.014Z,101628.80
2022-10-11T17:46:34.891Z,101633.00
2022-10-11T17:49:06.934Z,101626.00
2022-10-11T17:51:38.353Z,101626.40
2022-10-11T17:54:06.933Z,101625.20
2022-10-11T17:56:37.974Z,101627.40
2022-10-11T17:59:08.421Z,101627.40
2022-10-11T18:01:37.698Z,101629.40
2022-10-11T18:04:06.389Z,101630.60
2022-10-11T18:06:43.333Z,101627.60
2022-10-11T18:09:14.209Z,101628.20
2022-10-11T18:11:43.466Z,101628.00
2022-10-11T18:14:12.122Z,101627.40
2022-10-11T18:16:41.288Z,101621.60
2022-10-11T18:19:14.581Z,101629.40
2022-10-11T18:21:43.469Z,101623.20
2022-10-11T18:24:16.711Z,101619.20
2022-10-11T18:26:45.671Z,101616.80
2022-10-11T18:29:18.238Z,101618.40
2022-10-11T18:31:50.460Z,101615.80
2022-10-11T18:34:18.749Z,101622.40
2022-10-11T18:36:48.397Z,101620.80
2022-10-11T18:39:16.903Z,101621.60
2022-10-11T18:41:45.356Z,101619.60
2022-10-11T18:44:16.347Z,101622.20
2022-10-11T18:46:45.909Z,101624.80
2022-10-11T18:49:14.374Z,101621.80
2022-10-11T18:51:47.012Z,101620.60
2022-10-11T18:54:20.253Z,101623.60
2022-10-11T18:56:49.768Z,101619.40
2022-10-11T18:59:17.781Z,101621.20
2022-10-11T19:01:45.822Z,101623.00
2022-10-11T19:04:18.614Z,101622.60
2022-10-11T19:06:49.435Z,101619.40
2022-10-11T19:09:24.989Z,101625.80
2022-10-11T19:11:56.103Z,101627.00
2022-10-11T19:14:29.117Z,101629.20
2022-10-11T19:16:59.003Z,101623.40
2022-10-11T19:19:32.381Z,101630.60
2022-10-11T19:22:03.681Z,101627.80
2022-10-11T19:24:34.802Z,101632.80
2022-10-11T19:27:03.170Z,101630.80
2022-10-11T19:29:32.798Z,101626.80
2022-10-11T19:32:03.913Z,101624.20
2022-10-11T19:34:33.191Z,101622.00
2022-10-11T19:37:05.453Z,101617.20
2022-10-11T19:39:33.267Z,101616.40
2022-10-11T19:42:01.384Z,101625.80
2022-10-11T19:44:30.057Z,101621.80
2022-10-11T19:47:02.778Z,101624.40
2022-10-11T19:49:33.881Z,101618.80
2022-10-11T19:52:01.690Z,101622.80
2022-10-11T19:54:29.598Z,101623.60
2022-10-11T19:56:57.486Z,101624.20
2022-10-11T19:59:26.934Z,101619.20
2022-10-11T20:01:56.032Z,101624.40
2022-10-11T20:04:52.052Z,101626.40
2022-10-11T20:07:12.368Z,101630.00
2022-10-11T20:09:40.033Z,101631.80
2022-10-11T20:12:08.268Z,101624.60
2022-10-11T20:14:36.236Z,101624.00
2022-10-11T20:17:04.001Z,101626.20
2022-10-11T20:19:33.233Z,101631.20
2022-10-11T20:22:01.763Z,101630.40
2022-10-11T20:24:33.572Z,101628.00
2022-10-11T20:27:06.764Z,101629.40
2022-10-11T20:29:35.231Z,101631.80
2022-10-11T20:32:02.887Z,101643.00
2022-10-11T20:34:30.708Z,101636.00
2022-10-11T20:36:59.030Z,101633.60
2022-10-11T20:39:27.017Z,101624.00
2022-10-11T20:41:55.078Z,101635.60
2022-10-11T20:44:22.809Z,101637.40
2022-10-11T20:46:50.682Z,101635.20
2022-10-11T20:49:20.087Z,101633.60
2022-10-11T20:51:48.525Z,101641.40
2022-10-11T20:54:16.778Z,101639.00
2022-10-11T20:56:44.710Z,101641.20
2022-10-11T20:59:12.502Z,101637.20
2022-10-11T21:01:41.688Z,101632.60
2022-10-11T21:04:18.948Z,101637.40
2022-10-11T21:06:48.764Z,101639.40
2022-10-11T21:09:17.560Z,101642.80
2022-10-11T21:11:45.922Z,101640.60
2022-10-11T21:14:14.255Z,101642.40
2022-10-11T21:16:42.191Z,101640.00
2022-10-11T21:19:14.398Z,101643.60
2022-10-11T21:21:43.682Z,101642.20
2022-10-11T21:24:11.420Z,101645.20
2022-10-11T21:26:39.376Z,101645.20
2022-10-11T21:29:08.455Z,101646.80
2022-10-11T21:31:36.436Z,101643.00
2022-10-11T21:34:05.261Z,101645.20
2022-10-11T21:36:33.668Z,101643.60
2022-10-11T21:39:01.336Z,101649.40
2022-10-11T21:41:30.307Z,101648.20
2022-10-11T21:43:58.561Z,101650.60
2022-10-11T21:46:53.978Z,101648.20
2022-10-11T21:49:18.535Z,101652.80
2022-10-11T21:51:46.360Z,101655.80
2022-10-11T21:54:14.156Z,101649.40
2022-10-11T21:56:42.743Z,101651.60
2022-10-11T21:59:12.647Z,101652.40
2022-10-11T22:01:43.275Z,101656.40
2022-10-11T22:04:11.803Z,101655.80
2022-10-11T22:06:40.232Z,101654.20
2022-10-11T22:09:08.920Z,101653.00
2022-10-11T22:11:37.483Z,101653.80
2022-10-11T22:14:05.242Z,101651.00
2022-10-11T22:16:34.646Z,101654.80
2022-10-11T22:19:02.583Z,101655.00
2022-10-11T22:21:30.395Z,101648.80
2022-10-11T22:23:58.506Z,101646.00
2022-10-11T22:26:32.531Z,101652.60
2022-10-11T22:29:00.706Z,101652.00
2022-10-11T22:31:30.290Z,101651.00
2022-10-11T22:34:00.552Z,101651.20
2022-10-11T22:36:30.719Z,101655.20
2022-10-11T22:38:59.222Z,101654.40
2022-10-11T22:41:26.992Z,101650.00
2022-10-11T22:43:54.709Z,101653.80
2022-10-11T22:46:22.407Z,101650.60
2022-10-11T22:48:50.094Z,101646.60
2022-10-11T22:51:17.787Z,101641.60
2022-10-11T22:53:45.482Z,101646.00
2022-10-11T22:56:13.232Z,101647.80
2022-10-11T22:58:40.893Z,101646.60
2022-10-11T23:01:15.912Z,101654.40
2022-10-11T23:03:43.703Z,101657.20
2022-10-11T23:06:11.476Z,101658.20
2022-10-11T23:08:39.240Z,101657.80
2022-10-11T23:11:07.729Z,101664.60
2022-10-11T23:13:35.928Z,101662.20
2022-10-11T23:16:12.320Z,101660.80
2022-10-11T23:18:40.409Z,101662.20
2022-10-11T23:21:10.250Z,101660.60
2022-10-11T23:23:40.006Z,101655.80
2022-10-11T23:26:12.861Z,101662.20
2022-10-11T23:28:41.689Z,101662.60
2022-10-11T23:31:17.319Z,101663.00
2022-10-11T23:33:46.857Z,101660.40
2022-10-11T23:36:24.328Z,101662.40
2022-10-11T23:38:55.783Z,101662.40
2022-10-11T23:41:27.492Z,101667.60
2022-10-11T23:43:55.367Z,101660.20
2022-10-11T23:46:23.353Z,101656.80
2022-10-11T23:48:51.152Z,101651.40
2022-10-11T23:51:18.827Z,101654.60
2022-10-11T23:53:46.640Z,101656.60
2022-10-11T23:56:14.295Z,101659.00
2022-10-11T23:58:41.969Z,101659.80
